sensor_id;sensor_type;location;lat;lon;timestamp;P1;durP1;ratioP1;P2;durP2;ratioP2
80557;SDS011;69901;43.524;-5.636;2024-02-26T00:00:38;9.90;;;7.28;;
80557;SDS011;69901;43.524;-5.636;2024-02-26T00:03:03;9.77;;;7.80;;
80557;SDS011;69901;43.524;-5.636;2024-02-26T00:05:29;8.50;;;7.00;;
80557;SDS011;69901;43.524;-5.636;2024-02-26T00:07:56;8.83;;;7.30;;
80557;SDS011;69901;43.524;-5.636;2024-02-26T00:10:22;9.45;;;7.93;;
80557;SDS011;69901;43.524;-5.636;2024-02-26T00:12:47;9.10;;;7.07;;
80557;SDS011;69901;43.524;-5.636;2024-02-26T00:15:13;8.80;;;7.90;;
80557;SDS011;69901;43.524;-5.636;2024-02-26T00:17:39;9.93;;;7.70;;
80557;SDS011;69901;43.524;-5.636;2024-02-26T00:20:05;8.60;;;7.70;;
80557;SDS011;69901;43.524;-5.636;2024-02-26T00:22:34;9.52;;;7.80;;
80557;SDS011;69901;43.524;-5.636;2024-02-26T00:25:00;9.07;;;7.40;;
80557;SDS011;69901;43.524;-5.636;2024-02-26T00:27:25;9.30;;;7.50;;
80557;SDS011;69901;43.524;-5.636;2024-02-26T00:29:51;8.33;;;7.37;;
80557;SDS011;69901;43.524;-5.636;2024-02-26T00:32:16;8.32;;;7.32;;
80557;SDS011;69901;43.524;-5.636;2024-02-26T00:34:42;9.03;;;7.50;;
80557;SDS011;69901;43.524;-5.636;2024-02-26T00:37:07;10.15;;;7.40;;
80557;SDS011;69901;43.524;-5.636;2024-02-26T00:39:33;9.53;;;7.07;;
80557;SDS011;69901;43.524;-5.636;2024-02-26T00:41:58;8.27;;;7.47;;
80557;SDS011;69901;43.524;-5.636;2024-02-26T00:44:24;9.63;;;7.53;;
80557;SDS011;69901;43.524;-5.636;2024-02-26T00:46:49;9.80;;;7.43;;
80557;SDS011;69901;43.524;-5.636;2024-02-26T00:49:15;8.57;;;7.67;;
80557;SDS011;69901;43.524;-5.636;2024-02-26T00:51:40;8.57;;;7.60;;
80557;SDS011;69901;43.524;-5.636;2024-02-26T00:54:06;10.40;;;7.75;;
80557;SDS011;69901;43.524;-5.636;2024-02-26T00:56:31;9.20;;;8.20;;
80557;SDS011;69901;43.524;-5.636;2024-02-26T00:58:58;8.97;;;7.57;;
80557;SDS011;69901;43.524;-5.636;2024-02-26T01:01:23;8.57;;;7.38;;
80557;SDS011;69901;43.524;-5.636;2024-02-26T01:03:49;10.05;;;7.18;;
80557;SDS011;69901;43.524;-5.636;2024-02-26T01:06:15;12.30;;;8.00;;
80557;SDS011;69901;43.524;-5.636;2024-02-26T01:08:40;9.50;;;7.70;;
80557;SDS011;69901;43.524;-5.636;2024-02-26T01:11:06;9.60;;;7.65;;
80557;SDS011;69901;43.524;-5.636;2024-02-26T01:13:32;11.32;;;8.30;;
80557;SDS011;69901;43.524;-5.636;2024-02-26T01:15:58;10.23;;;7.73;;
80557;SDS011;69901;43.524;-5.636;2024-02-26T01:18:23;10.50;;;7.60;;
80557;SDS011;69901;43.524;-5.636;2024-02-26T01:20:49;12.90;;;7.70;;
80557;SDS011;69901;43.524;-5.636;2024-02-26T01:23:15;8.47;;;7.57;;
80557;SDS011;69901;43.524;-5.636;2024-02-26T01:25:40;9.73;;;8.07;;
80557;SDS011;69901;43.524;-5.636;2024-02-26T01:28:06;9.40;;;7.47;;
80557;SDS011;69901;43.524;-5.636;2024-02-26T01:30:31;8.20;;;6.83;;
80557;SDS011;69901;43.524;-5.636;2024-02-26T01:32:57;9.00;;;7.90;;
80557;SDS011;69901;43.524;-5.636;2024-02-26T01:35:22;10.00;;;8.20;;
80557;SDS011;69901;43.524;-5.636;2024-02-26T01:37:48;9.37;;;7.70;;
80557;SDS011;69901;43.524;-5.636;2024-02-26T01:40:14;10.00;;;7.78;;
80557;SDS011;69901;43.524;-5.636;2024-02-26T01:42:43;9.32;;;7.60;;
80557;SDS011;69901;43.524;-5.636;2024-02-26T01:45:18;10.57;;;7.57;;
80557;SDS011;69901;43.524;-5.636;2024-02-26T01:47:50;8.60;;;7.20;;
80557;SDS011;69901;43.524;-5.636;2024-02-26T01:50:16;9.23;;;7.95;;
80557;SDS011;69901;43.524;-5.636;2024-02-26T01:52:43;8.55;;;7.65;;
80557;SDS011;69901;43.524;-5.636;2024-02-26T01:55:09;8.45;;;7.45;;
80557;SDS011;69901;43.524;-5.636;2024-02-26T01:57:35;8.93;;;7.50;;
80557;SDS011;69901;43.524;-5.636;2024-02-26T02:00:00;11.40;;;7.43;;
80557;SDS011;69901;43.524;-5.636;2024-02-26T02:02:27;11.15;;;7.70;;
80557;SDS011;69901;43.524;-5.636;2024-02-26T02:04:53;10.83;;;8.10;;
80557;SDS011;69901;43.524;-5.636;2024-02-26T02:07:18;9.50;;;8.50;;
80557;SDS011;69901;43.524;-5.636;2024-02-26T02:09:44;9.60;;;7.55;;
80557;SDS011;69901;43.524;-5.636;2024-02-26T02:12:10;11.10;;;7.03;;
80557;SDS011;69901;43.524;-5.636;2024-02-26T02:14:36;9.10;;;6.47;;
80557;SDS011;69901;43.524;-5.636;2024-02-26T02:17:01;8.83;;;7.63;;
80557;SDS011;69901;43.524;-5.636;2024-02-26T02:19:27;10.15;;;7.90;;
80557;SDS011;69901;43.524;-5.636;2024-02-26T02:21:54;9.93;;;8.47;;
80557;SDS011;69901;43.524;-5.636;2024-02-26T02:24:19;9.50;;;7.70;;
80557;SDS011;69901;43.524;-5.636;2024-02-26T02:26:45;9.63;;;7.90;;
80557;SDS011;69901;43.524;-5.636;2024-02-26T02:29:10;9.30;;;7.68;;
80557;SDS011;69901;43.524;-5.636;2024-02-26T02:31:37;9.60;;;7.60;;
80557;SDS011;69901;43.524;-5.636;2024-02-26T02:34:02;9.88;;;7.90;;
80557;SDS011;69901;43.524;-5.636;2024-02-26T02:36:28;8.87;;;7.43;;
80557;SDS011;69901;43.524;-5.636;2024-02-26T02:38:54;9.18;;;7.60;;
80557;SDS011;69901;43.524;-5.636;2024-02-26T02:41:19;11.53;;;7.80;;
80557;SDS011;69901;43.524;-5.636;2024-02-26T02:43:45;8.53;;;7.63;;
80557;SDS011;69901;43.524;-5.636;2024-02-26T02:46:10;9.23;;;7.10;;
80557;SDS011;69901;43.524;-5.636;2024-02-26T02:48:38;8.13;;;7.33;;
80557;SDS011;69901;43.524;-5.636;2024-02-26T02:51:04;11.10;;;7.90;;
80557;SDS011;69901;43.524;-5.636;2024-02-26T02:53:30;10.30;;;8.10;;
80557;SDS011;69901;43.524;-5.636;2024-02-26T02:55:55;11.15;;;7.93;;
80557;SDS011;69901;43.524;-5.636;2024-02-26T02:58:21;10.60;;;8.10;;
80557;SDS011;69901;43.524;-5.636;2024-02-26T03:00:46;11.05;;;8.07;;
80557;SDS011;69901;43.524;-5.636;2024-02-26T03:03:12;10.13;;;8.53;;
80557;SDS011;69901;43.524;-5.636;2024-02-26T03:05:37;10.50;;;7.83;;
80557;SDS011;69901;43.524;-5.636;2024-02-26T03:08:03;9.90;;;7.90;;
80557;SDS011;69901;43.524;-5.636;2024-02-26T03:10:29;10.15;;;7.95;;
80557;SDS011;69901;43.524;-5.636;2024-02-26T03:12:54;10.17;;;7.50;;
80557;SDS011;69901;43.524;-5.636;2024-02-26T03:15:21;9.97;;;7.83;;
80557;SDS011;69901;43.524;-5.636;2024-02-26T03:17:47;11.57;;;8.00;;
80557;SDS011;69901;43.524;-5.636;2024-02-26T03:20:12;10.13;;;7.77;;
80557;SDS011;69901;43.524;-5.636;2024-02-26T03:22:38;13.63;;;8.68;;
80557;SDS011;69901;43.524;-5.636;2024-02-26T03:25:05;10.40;;;7.07;;
80557;SDS011;69901;43.524;-5.636;2024-02-26T03:27:31;10.63;;;7.82;;
80557;SDS011;69901;43.524;-5.636;2024-02-26T03:29:57;10.05;;;7.63;;
80557;SDS011;69901;43.524;-5.636;2024-02-26T03:32:22;9.47;;;7.23;;
80557;SDS011;69901;43.524;-5.636;2024-02-26T03:34:47;9.57;;;8.00;;
80557;SDS011;69901;43.524;-5.636;2024-02-26T03:37:13;9.87;;;8.07;;
80557;SDS011;69901;43.524;-5.636;2024-02-26T03:39:38;10.35;;;7.70;;
80557;SDS011;69901;43.524;-5.636;2024-02-26T03:42:04;10.47;;;8.27;;
80557;SDS011;69901;43.524;-5.636;2024-02-26T03:44:30;8.47;;;6.93;;
80557;SDS011;69901;43.524;-5.636;2024-02-26T03:46:55;10.07;;;7.03;;
80557;SDS011;69901;43.524;-5.636;2024-02-26T03:49:21;9.83;;;8.20;;
80557;SDS011;69901;43.524;-5.636;2024-02-26T03:51:47;10.05;;;7.93;;
80557;SDS011;69901;43.524;-5.636;2024-02-26T03:54:13;9.95;;;7.85;;
80557;SDS011;69901;43.524;-5.636;2024-02-26T03:56:39;10.93;;;7.50;;
80557;SDS011;69901;43.524;-5.636;2024-02-26T03:59:04;12.83;;;8.90;;
80557;SDS011;69901;43.524;-5.636;2024-02-26T04:01:30;10.17;;;8.23;;
80557;SDS011;69901;43.524;-5.636;2024-02-26T04:03:55;12.73;;;8.30;;
80557;SDS011;69901;43.524;-5.636;2024-02-26T04:06:21;9.52;;;7.45;;
80557;SDS011;69901;43.524;-5.636;2024-02-26T04:08:47;10.10;;;7.47;;
80557;SDS011;69901;43.524;-5.636;2024-02-26T04:11:13;11.02;;;7.70;;
80557;SDS011;69901;43.524;-5.636;2024-02-26T04:13:42;9.00;;;7.07;;
80557;SDS011;69901;43.524;-5.636;2024-02-26T04:16:11;11.20;;;7.90;;
80557;SDS011;69901;43.524;-5.636;2024-02-26T04:18:36;8.93;;;8.03;;
80557;SDS011;69901;43.524;-5.636;2024-02-26T04:21:02;9.43;;;7.70;;
80557;SDS011;69901;43.524;-5.636;2024-02-26T04:23:28;9.88;;;7.97;;
80557;SDS011;69901;43.524;-5.636;2024-02-26T04:25:54;9.47;;;8.07;;
80557;SDS011;69901;43.524;-5.636;2024-02-26T04:28:19;10.33;;;8.10;;
80557;SDS011;69901;43.524;-5.636;2024-02-26T04:30:50;10.35;;;7.97;;
80557;SDS011;69901;43.524;-5.636;2024-02-26T04:33:16;10.77;;;7.83;;
80557;SDS011;69901;43.524;-5.636;2024-02-26T04:35:41;10.48;;;7.60;;
80557;SDS011;69901;43.524;-5.636;2024-02-26T04:38:07;9.07;;;7.37;;
80557;SDS011;69901;43.524;-5.636;2024-02-26T04:40:33;9.15;;;7.47;;
80557;SDS011;69901;43.524;-5.636;2024-02-26T04:42:58;9.20;;;8.20;;
80557;SDS011;69901;43.524;-5.636;2024-02-26T04:45:24;9.40;;;7.85;;
80557;SDS011;69901;43.524;-5.636;2024-02-26T04:47:50;9.17;;;7.70;;
80557;SDS011;69901;43.524;-5.636;2024-02-26T04:50:15;10.95;;;8.00;;
80557;SDS011;69901;43.524;-5.636;2024-02-26T04:52:41;10.60;;;7.90;;
80557;SDS011;69901;43.524;-5.636;2024-02-26T04:55:07;10.50;;;7.45;;
80557;SDS011;69901;43.524;-5.636;2024-02-26T04:57:33;9.52;;;7.57;;
80557;SDS011;69901;43.524;-5.636;2024-02-26T04:59:58;8.77;;;7.73;;
80557;SDS011;69901;43.524;-5.636;2024-02-26T05:02:24;10.80;;;7.80;;
80557;SDS011;69901;43.524;-5.636;2024-02-26T05:04:49;9.50;;;7.50;;
80557;SDS011;69901;43.524;-5.636;2024-02-26T05:07:15;7.90;;;7.10;;
80557;SDS011;69901;43.524;-5.636;2024-02-26T05:09:42;9.10;;;7.68;;
80557;SDS011;69901;43.524;-5.636;2024-02-26T05:12:08;10.07;;;7.95;;
80557;SDS011;69901;43.524;-5.636;2024-02-26T05:14:34;9.83;;;7.93;;
80557;SDS011;69901;43.524;-5.636;2024-02-26T05:17:00;9.13;;;7.47;;
80557;SDS011;69901;43.524;-5.636;2024-02-26T05:19:26;9.47;;;7.60;;
80557;SDS011;69901;43.524;-5.636;2024-02-26T05:21:52;11.13;;;7.32;;
80557;SDS011;69901;43.524;-5.636;2024-02-26T05:24:17;10.47;;;7.83;;
80557;SDS011;69901;43.524;-5.636;2024-02-26T05:26:43;9.35;;;8.10;;
80557;SDS011;69901;43.524;-5.636;2024-02-26T05:29:10;9.43;;;8.13;;
80557;SDS011;69901;43.524;-5.636;2024-02-26T05:31:35;9.07;;;7.97;;
80557;SDS011;69901;43.524;-5.636;2024-02-26T05:34:01;8.80;;;7.90;;
80557;SDS011;69901;43.524;-5.636;2024-02-26T05:36:26;9.83;;;7.80;;
80557;SDS011;69901;43.524;-5.636;2024-02-26T05:38:53;8.95;;;8.05;;
80557;SDS011;69901;43.524;-5.636;2024-02-26T05:41:19;8.60;;;7.65;;
80557;SDS011;69901;43.524;-5.636;2024-02-26T05:43:51;9.48;;;8.10;;
80557;SDS011;69901;43.524;-5.636;2024-02-26T05:46:19;7.80;;;6.80;;
80557;SDS011;69901;43.524;-5.636;2024-02-26T05:48:52;10.03;;;7.70;;
80557;SDS011;69901;43.524;-5.636;2024-02-26T05:51:18;8.48;;;7.57;;
80557;SDS011;69901;43.524;-5.636;2024-02-26T05:53:43;9.63;;;7.82;;
80557;SDS011;69901;43.524;-5.636;2024-02-26T05:56:10;8.93;;;7.95;;
80557;SDS011;69901;43.524;-5.636;2024-02-26T05:58:36;9.03;;;7.67;;
80557;SDS011;69901;43.524;-5.636;2024-02-26T06:01:01;9.20;;;7.57;;
80557;SDS011;69901;43.524;-5.636;2024-02-26T06:03:27;8.18;;;7.38;;
80557;SDS011;69901;43.524;-5.636;2024-02-26T06:05:52;10.00;;;8.10;;
80557;SDS011;69901;43.524;-5.636;2024-02-26T06:08:18;8.50;;;7.65;;
80557;SDS011;69901;43.524;-5.636;2024-02-26T06:10:43;8.67;;;7.57;;
80557;SDS011;69901;43.524;-5.636;2024-02-26T06:13:09;8.20;;;6.93;;
80557;SDS011;69901;43.524;-5.636;2024-02-26T06:15:34;10.52;;;8.18;;
80557;SDS011;69901;43.524;-5.636;2024-02-26T06:18:00;9.17;;;7.17;;
80557;SDS011;69901;43.524;-5.636;2024-02-26T06:20:25;8.40;;;7.40;;
80557;SDS011;69901;43.524;-5.636;2024-02-26T06:22:51;9.60;;;7.57;;
80557;SDS011;69901;43.524;-5.636;2024-02-26T06:25:16;8.73;;;7.53;;
80557;SDS011;69901;43.524;-5.636;2024-02-26T06:27:42;8.37;;;7.50;;
80557;SDS011;69901;43.524;-5.636;2024-02-26T06:30:07;8.33;;;7.43;;
80557;SDS011;69901;43.524;-5.636;2024-02-26T06:32:36;8.48;;;7.68;;
80557;SDS011;69901;43.524;-5.636;2024-02-26T06:35:02;9.13;;;7.30;;
80557;SDS011;69901;43.524;-5.636;2024-02-26T06:37:32;8.20;;;7.35;;
80557;SDS011;69901;43.524;-5.636;2024-02-26T06:39:58;8.00;;;7.15;;
80557;SDS011;69901;43.524;-5.636;2024-02-26T06:42:24;8.87;;;7.53;;
80557;SDS011;69901;43.524;-5.636;2024-02-26T06:44:50;9.32;;;7.60;;
80557;SDS011;69901;43.524;-5.636;2024-02-26T06:47:15;8.10;;;7.33;;
80557;SDS011;69901;43.524;-5.636;2024-02-26T06:49:41;9.47;;;8.03;;
80557;SDS011;69901;43.524;-5.636;2024-02-26T06:52:06;8.88;;;7.38;;
80557;SDS011;69901;43.524;-5.636;2024-02-26T06:54:32;8.27;;;7.40;;
80557;SDS011;69901;43.524;-5.636;2024-02-26T06:56:57;8.73;;;7.70;;
80557;SDS011;69901;43.524;-5.636;2024-02-26T06:59:23;9.27;;;7.90;;
80557;SDS011;69901;43.524;-5.636;2024-02-26T07:01:49;8.43;;;7.60;;
80557;SDS011;69901;43.524;-5.636;2024-02-26T07:04:14;8.10;;;7.30;;
80557;SDS011;69901;43.524;-5.636;2024-02-26T07:06:40;8.20;;;7.40;;
80557;SDS011;69901;43.524;-5.636;2024-02-26T07:09:06;8.80;;;8.00;;
80557;SDS011;69901;43.524;-5.636;2024-02-26T07:11:32;9.13;;;7.37;;
80557;SDS011;69901;43.524;-5.636;2024-02-26T07:13:57;9.17;;;8.20;;
80557;SDS011;69901;43.524;-5.636;2024-02-26T07:16:23;8.25;;;7.32;;
80557;SDS011;69901;43.524;-5.636;2024-02-26T07:18:49;8.50;;;7.70;;
80557;SDS011;69901;43.524;-5.636;2024-02-26T07:21:14;8.38;;;7.50;;
80557;SDS011;69901;43.524;-5.636;2024-02-26T07:23:40;8.80;;;7.90;;
80557;SDS011;69901;43.524;-5.636;2024-02-26T07:26:06;8.23;;;7.43;;
80557;SDS011;69901;43.524;-5.636;2024-02-26T07:28:33;8.00;;;7.30;;
80557;SDS011;69901;43.524;-5.636;2024-02-26T07:30:59;8.43;;;7.50;;
80557;SDS011;69901;43.524;-5.636;2024-02-26T07:33:24;8.13;;;7.20;;
80557;SDS011;69901;43.524;-5.636;2024-02-26T07:35:49;9.77;;;8.90;;
80557;SDS011;69901;43.524;-5.636;2024-02-26T07:38:15;8.20;;;7.40;;
80557;SDS011;69901;43.524;-5.636;2024-02-26T07:40:41;8.07;;;7.38;;
80557;SDS011;69901;43.524;-5.636;2024-02-26T07:43:07;8.50;;;7.70;;
80557;SDS011;69901;43.524;-5.636;2024-02-26T07:45:32;8.02;;;7.20;;
80557;SDS011;69901;43.524;-5.636;2024-02-26T07:47:58;7.87;;;7.07;;
80557;SDS011;69901;43.524;-5.636;2024-02-26T07:50:23;7.47;;;6.77;;
80557;SDS011;69901;43.524;-5.636;2024-02-26T07:52:49;8.00;;;7.30;;
80557;SDS011;69901;43.524;-5.636;2024-02-26T07:55:16;8.18;;;7.38;;
80557;SDS011;69901;43.524;-5.636;2024-02-26T07:57:42;8.50;;;7.70;;
80557;SDS011;69901;43.524;-5.636;2024-02-26T08:00:09;8.90;;;8.10;;
80557;SDS011;69901;43.524;-5.636;2024-02-26T08:02:35;8.70;;;7.40;;
80557;SDS011;69901;43.524;-5.636;2024-02-26T08:05:01;8.48;;;7.43;;
80557;SDS011;69901;43.524;-5.636;2024-02-26T08:07:26;8.95;;;7.40;;
80557;SDS011;69901;43.524;-5.636;2024-02-26T08:09:53;8.27;;;6.80;;
80557;SDS011;69901;43.524;-5.636;2024-02-26T08:12:19;8.77;;;6.85;;
80557;SDS011;69901;43.524;-5.636;2024-02-26T08:14:44;9.27;;;7.30;;
80557;SDS011;69901;43.524;-5.636;2024-02-26T08:17:10;8.17;;;7.37;;
80557;SDS011;69901;43.524;-5.636;2024-02-26T08:19:35;7.63;;;6.90;;
80557;SDS011;69901;43.524;-5.636;2024-02-26T08:22:01;8.77;;;7.10;;
80557;SDS011;69901;43.524;-5.636;2024-02-26T08:24:27;8.18;;;6.13;;
80557;SDS011;69901;43.524;-5.636;2024-02-26T08:26:53;7.85;;;7.05;;
80557;SDS011;69901;43.524;-5.636;2024-02-26T08:29:18;7.20;;;6.50;;
80557;SDS011;69901;43.524;-5.636;2024-02-26T08:31:44;7.77;;;6.97;;
80557;SDS011;69901;43.524;-5.636;2024-02-26T08:34:09;9.63;;;6.38;;
80557;SDS011;69901;43.524;-5.636;2024-02-26T08:36:35;7.35;;;6.60;;
80557;SDS011;69901;43.524;-5.636;2024-02-26T08:39:01;7.43;;;6.40;;
80557;SDS011;69901;43.524;-5.636;2024-02-26T08:41:26;10.97;;;6.73;;
80557;SDS011;69901;43.524;-5.636;2024-02-26T08:43:52;8.40;;;7.05;;
80557;SDS011;69901;43.524;-5.636;2024-02-26T08:46:17;9.23;;;6.60;;
80557;SDS011;69901;43.524;-5.636;2024-02-26T08:48:43;8.70;;;6.30;;
80557;SDS011;69901;43.524;-5.636;2024-02-26T08:51:09;7.60;;;6.80;;
80557;SDS011;69901;43.524;-5.636;2024-02-26T08:53:35;7.77;;;6.40;;
80557;SDS011;69901;43.524;-5.636;2024-02-26T08:56:01;10.40;;;7.00;;
80557;SDS011;69901;43.524;-5.636;2024-02-26T08:58:27;8.32;;;7.32;;
80557;SDS011;69901;43.524;-5.636;2024-02-26T09:00:53;7.65;;;6.18;;
80557;SDS011;69901;43.524;-5.636;2024-02-26T09:03:19;7.93;;;6.70;;
80557;SDS011;69901;43.524;-5.636;2024-02-26T09:05:45;7.82;;;6.28;;
80557;SDS011;69901;43.524;-5.636;2024-02-26T09:08:10;7.90;;;6.53;;
80557;SDS011;69901;43.524;-5.636;2024-02-26T09:10:36;8.47;;;6.50;;
80557;SDS011;69901;43.524;-5.636;2024-02-26T09:13:01;9.35;;;6.78;;
80557;SDS011;69901;43.524;-5.636;2024-02-26T09:15:27;9.03;;;6.53;;
80557;SDS011;69901;43.524;-5.636;2024-02-26T09:17:52;9.83;;;7.00;;
80557;SDS011;69901;43.524;-5.636;2024-02-26T09:20:18;11.05;;;6.93;;
80557;SDS011;69901;43.524;-5.636;2024-02-26T09:22:48;9.55;;;6.95;;
80557;SDS011;69901;43.524;-5.636;2024-02-26T09:25:15;11.20;;;6.73;;
80557;SDS011;69901;43.524;-5.636;2024-02-26T09:27:44;12.00;;;6.03;;
80557;SDS011;69901;43.524;-5.636;2024-02-26T09:30:10;8.18;;;7.10;;
80557;SDS011;69901;43.524;-5.636;2024-02-26T09:32:37;9.50;;;6.63;;
80557;SDS011;69901;43.524;-5.636;2024-02-26T09:35:03;10.55;;;6.75;;
80557;SDS011;69901;43.524;-5.636;2024-02-26T09:37:29;9.63;;;6.53;;
80557;SDS011;69901;43.524;-5.636;2024-02-26T09:39:55;12.48;;;6.45;;
80557;SDS011;69901;43.524;-5.636;2024-02-26T09:42:20;12.80;;;7.00;;
80557;SDS011;69901;43.524;-5.636;2024-02-26T09:44:51;15.35;;;7.38;;
80557;SDS011;69901;43.524;-5.636;2024-02-26T09:47:23;14.10;;;7.65;;
80557;SDS011;69901;43.524;-5.636;2024-02-26T09:49:49;9.75;;;7.05;;
80557;SDS011;69901;43.524;-5.636;2024-02-26T09:52:16;13.07;;;7.17;;
80557;SDS011;69901;43.524;-5.636;2024-02-26T09:54:47;12.52;;;7.30;;
80557;SDS011;69901;43.524;-5.636;2024-02-26T09:57:13;9.90;;;7.20;;
80557;SDS011;69901;43.524;-5.636;2024-02-26T09:59:42;11.30;;;7.53;;
80557;SDS011;69901;43.524;-5.636;2024-02-26T10:02:09;12.15;;;7.47;;
80557;SDS011;69901;43.524;-5.636;2024-02-26T10:04:38;10.67;;;7.87;;
80557;SDS011;69901;43.524;-5.636;2024-02-26T10:07:05;12.10;;;7.43;;
80557;SDS011;69901;43.524;-5.636;2024-02-26T10:09:36;14.02;;;7.72;;
80557;SDS011;69901;43.524;-5.636;2024-02-26T10:12:02;13.88;;;7.82;;
80557;SDS011;69901;43.524;-5.636;2024-02-26T10:14:30;11.45;;;7.30;;
80557;SDS011;69901;43.524;-5.636;2024-02-26T10:16:56;13.40;;;7.83;;
80557;SDS011;69901;43.524;-5.636;2024-02-26T10:19:28;16.35;;;7.60;;
80557;SDS011;69901;43.524;-5.636;2024-02-26T10:21:58;14.68;;;8.50;;
80557;SDS011;69901;43.524;-5.636;2024-02-26T10:24:25;11.30;;;7.70;;
80557;SDS011;69901;43.524;-5.636;2024-02-26T10:26:52;11.70;;;7.77;;
80557;SDS011;69901;43.524;-5.636;2024-02-26T10:29:19;12.73;;;7.40;;
80557;SDS011;69901;43.524;-5.636;2024-02-26T10:31:45;12.82;;;7.82;;
80557;SDS011;69901;43.524;-5.636;2024-02-26T10:34:11;13.60;;;8.48;;
80557;SDS011;69901;43.524;-5.636;2024-02-26T10:36:38;16.17;;;7.93;;
80557;SDS011;69901;43.524;-5.636;2024-02-26T10:39:06;13.80;;;8.80;;
80557;SDS011;69901;43.524;-5.636;2024-02-26T10:41:35;11.40;;;8.07;;
80557;SDS011;69901;43.524;-5.636;2024-02-26T10:44:04;12.50;;;7.95;;
80557;SDS011;69901;43.524;-5.636;2024-02-26T10:46:30;14.52;;;8.25;;
80557;SDS011;69901;43.524;-5.636;2024-02-26T10:48:55;13.40;;;7.90;;
80557;SDS011;69901;43.524;-5.636;2024-02-26T10:51:26;16.52;;;8.55;;
80557;SDS011;69901;43.524;-5.636;2024-02-26T10:53:55;15.17;;;8.80;;
80557;SDS011;69901;43.524;-5.636;2024-02-26T10:56:27;15.07;;;7.93;;
80557;SDS011;69901;43.524;-5.636;2024-02-26T10:58:57;15.60;;;8.65;;
80557;SDS011;69901;43.524;-5.636;2024-02-26T11:01:23;14.48;;;9.00;;
80557;SDS011;69901;43.524;-5.636;2024-02-26T11:03:51;20.20;;;7.95;;
80557;SDS011;69901;43.524;-5.636;2024-02-26T11:06:21;12.57;;;8.23;;
80557;SDS011;69901;43.524;-5.636;2024-02-26T11:08:48;14.25;;;7.82;;
80557;SDS011;69901;43.524;-5.636;2024-02-26T11:11:15;16.25;;;8.65;;
80557;SDS011;69901;43.524;-5.636;2024-02-26T11:13:42;15.23;;;8.32;;
80557;SDS011;69901;43.524;-5.636;2024-02-26T11:16:13;14.95;;;8.43;;
80557;SDS011;69901;43.524;-5.636;2024-02-26T11:18:39;13.80;;;8.50;;
80557;SDS011;69901;43.524;-5.636;2024-02-26T11:21:07;15.77;;;9.23;;
80557;SDS011;69901;43.524;-5.636;2024-02-26T11:23:33;15.88;;;8.90;;
80557;SDS011;69901;43.524;-5.636;2024-02-26T11:26:02;17.27;;;8.80;;
80557;SDS011;69901;43.524;-5.636;2024-02-26T11:28:31;19.73;;;9.13;;
80557;SDS011;69901;43.524;-5.636;2024-02-26T11:30:58;18.47;;;9.47;;
80557;SDS011;69901;43.524;-5.636;2024-02-26T11:33:25;17.30;;;8.00;;
80557;SDS011;69901;43.524;-5.636;2024-02-26T11:35:53;17.08;;;9.35;;
80557;SDS011;69901;43.524;-5.636;2024-02-26T11:38:22;14.68;;;8.25;;
80557;SDS011;69901;43.524;-5.636;2024-02-26T11:40:50;14.05;;;8.02;;
80557;SDS011;69901;43.524;-5.636;2024-02-26T11:43:15;16.97;;;8.03;;
80557;SDS011;69901;43.524;-5.636;2024-02-26T11:48:11;16.95;;;8.18;;
80557;SDS011;69901;43.524;-5.636;2024-02-26T11:50:51;13.93;;;8.38;;
80557;SDS011;69901;43.524;-5.636;2024-02-26T11:53:22;14.87;;;8.63;;
80557;SDS011;69901;43.524;-5.636;2024-02-26T11:55:48;18.67;;;8.43;;
80557;SDS011;69901;43.524;-5.636;2024-02-26T11:58:34;18.17;;;9.30;;
80557;SDS011;69901;43.524;-5.636;2024-02-26T12:00:59;17.33;;;9.00;;
80557;SDS011;69901;43.524;-5.636;2024-02-26T12:03:25;15.20;;;7.80;;
80557;SDS011;69901;43.524;-5.636;2024-02-26T12:05:51;16.60;;;8.75;;
80557;SDS011;69901;43.524;-5.636;2024-02-26T12:08:17;16.17;;;8.70;;
80557;SDS011;69901;43.524;-5.636;2024-02-26T12:10:48;15.55;;;8.50;;
80557;SDS011;69901;43.524;-5.636;2024-02-26T12:13:14;18.08;;;9.20;;
80557;SDS011;69901;43.524;-5.636;2024-02-26T12:18:10;16.70;;;8.80;;
80557;SDS011;69901;43.524;-5.636;2024-02-26T12:20:43;13.77;;;8.32;;
80557;SDS011;69901;43.524;-5.636;2024-02-26T12:23:09;14.32;;;8.13;;
80557;SDS011;69901;43.524;-5.636;2024-02-26T12:25:40;19.50;;;8.80;;
80557;SDS011;69901;43.524;-5.636;2024-02-26T12:28:06;18.13;;;8.77;;
80557;SDS011;69901;43.524;-5.636;2024-02-26T12:30:32;13.40;;;8.20;;
80557;SDS011;69901;43.524;-5.636;2024-02-26T12:32:58;15.93;;;8.63;;
80557;SDS011;69901;43.524;-5.636;2024-02-26T12:35:26;15.75;;;8.88;;
80557;SDS011;69901;43.524;-5.636;2024-02-26T12:37:52;14.40;;;8.60;;
80557;SDS011;69901;43.524;-5.636;2024-02-26T12:40:19;16.42;;;8.65;;
80557;SDS011;69901;43.524;-5.636;2024-02-26T12:42:45;16.98;;;8.43;;
80557;SDS011;69901;43.524;-5.636;2024-02-26T12:45:12;17.65;;;8.50;;
80557;SDS011;69901;43.524;-5.636;2024-02-26T12:47:41;15.88;;;8.35;;
80557;SDS011;69901;43.524;-5.636;2024-02-26T12:50:08;14.23;;;8.53;;
80557;SDS011;69901;43.524;-5.636;2024-02-26T12:52:35;15.35;;;8.35;;
80557;SDS011;69901;43.524;-5.636;2024-02-26T12:55:02;20.70;;;8.90;;
80557;SDS011;69901;43.524;-5.636;2024-02-26T12:57:29;14.18;;;8.27;;
80557;SDS011;69901;43.524;-5.636;2024-02-26T12:59:57;17.38;;;8.40;;
80557;SDS011;69901;43.524;-5.636;2024-02-26T13:02:24;17.43;;;8.87;;
80557;SDS011;69901;43.524;-5.636;2024-02-26T13:04:51;18.88;;;8.82;;
80557;SDS011;69901;43.524;-5.636;2024-02-26T13:07:17;16.05;;;9.05;;
80557;SDS011;69901;43.524;-5.636;2024-02-26T13:09:42;16.10;;;8.97;;
80557;SDS011;69901;43.524;-5.636;2024-02-26T13:12:08;15.15;;;8.80;;
80557;SDS011;69901;43.524;-5.636;2024-02-26T13:14:34;14.57;;;8.43;;
80557;SDS011;69901;43.524;-5.636;2024-02-26T13:17:00;17.80;;;9.02;;
80557;SDS011;69901;43.524;-5.636;2024-02-26T13:19:26;20.58;;;8.90;;
80557;SDS011;69901;43.524;-5.636;2024-02-26T13:21:54;16.85;;;8.35;;
80557;SDS011;69901;43.524;-5.636;2024-02-26T13:24:20;13.00;;;8.70;;
80557;SDS011;69901;43.524;-5.636;2024-02-26T13:26:47;19.73;;;9.57;;
80557;SDS011;69901;43.524;-5.636;2024-02-26T13:29:19;16.50;;;8.75;;
80557;SDS011;69901;43.524;-5.636;2024-02-26T13:31:44;20.20;;;9.03;;
80557;SDS011;69901;43.524;-5.636;2024-02-26T13:34:11;19.88;;;9.82;;
80557;SDS011;69901;43.524;-5.636;2024-02-26T13:36:48;15.25;;;8.77;;
80557;SDS011;69901;43.524;-5.636;2024-02-26T13:39:20;14.30;;;8.93;;
80557;SDS011;69901;43.524;-5.636;2024-02-26T13:41:53;17.25;;;9.10;;
80557;SDS011;69901;43.524;-5.636;2024-02-26T13:44:19;16.55;;;8.73;;
80557;SDS011;69901;43.524;-5.636;2024-02-26T13:46:46;21.25;;;8.63;;
80557;SDS011;69901;43.524;-5.636;2024-02-26T13:49:14;18.97;;;8.93;;
80557;SDS011;69901;43.524;-5.636;2024-02-26T13:51:40;17.00;;;8.80;;
80557;SDS011;69901;43.524;-5.636;2024-02-26T13:54:06;16.67;;;8.95;;
80557;SDS011;69901;43.524;-5.636;2024-02-26T13:56:34;16.87;;;9.13;;
80557;SDS011;69901;43.524;-5.636;2024-02-26T13:59:00;19.70;;;9.85;;
80557;SDS011;69901;43.524;-5.636;2024-02-26T14:01:26;17.17;;;8.47;;
80557;SDS011;69901;43.524;-5.636;2024-02-26T14:03:52;14.35;;;8.40;;
80557;SDS011;69901;43.524;-5.636;2024-02-26T14:06:20;15.63;;;7.50;;
80557;SDS011;69901;43.524;-5.636;2024-02-26T14:08:46;17.10;;;8.20;;
80557;SDS011;69901;43.524;-5.636;2024-02-26T14:11:11;16.40;;;8.45;;
80557;SDS011;69901;43.524;-5.636;2024-02-26T14:13:37;13.53;;;8.37;;
80557;SDS011;69901;43.524;-5.636;2024-02-26T14:16:02;18.13;;;8.37;;
80557;SDS011;69901;43.524;-5.636;2024-02-26T14:18:28;16.48;;;8.88;;
80557;SDS011;69901;43.524;-5.636;2024-02-26T14:20:54;13.73;;;7.93;;
80557;SDS011;69901;43.524;-5.636;2024-02-26T14:23:19;14.35;;;8.80;;
80557;SDS011;69901;43.524;-5.636;2024-02-26T14:25:45;12.53;;;8.20;;
80557;SDS011;69901;43.524;-5.636;2024-02-26T14:28:10;15.05;;;8.25;;